createdAt,value
2023-04-19T00:00:52.150Z,1283.00
2023-04-19T00:01:52.209Z,1279.00
2023-04-19T00:02:52.488Z,1299.00
2023-04-19T00:03:52.534Z,1275.00
2023-04-19T00:04:52.472Z,1297.00
2023-04-19T00:05:52.372Z,1265.00
2023-04-19T00:06:52.372Z,1255.00
2023-04-19T00:07:52.406Z,1304.00
2023-04-19T00:08:52.381Z,1292.00
2023-04-19T00:09:52.388Z,1291.00
2023-04-19T00:10:52.404Z,1257.00
2023-04-19T00:11:52.378Z,1276.00
2023-04-19T00:12:52.404Z,1278.00
2023-04-19T00:13:52.403Z,1307.00
2023-04-19T00:14:52.382Z,1289.00
2023-04-19T00:15:52.418Z,1294.00
2023-04-19T00:16:52.514Z,1274.00
2023-04-19T00:17:52.586Z,1274.00
2023-04-19T00:18:52.580Z,1296.00
2023-04-19T00:19:52.645Z,1302.00
2023-04-19T00:20:52.696Z,1296.00
2023-04-19T00:21:52.801Z,1288.00
2023-04-19T00:22:52.820Z,1255.00
2023-04-19T00:23:52.875Z,1267.00
2023-04-19T00:24:52.940Z,1258.00
2023-04-19T00:25:52.986Z,1277.00
2023-04-19T00:26:53.069Z,1294.00
2023-04-19T00:27:53.084Z,1289.00
2023-04-19T00:28:53.122Z,1271.00
2023-04-19T00:29:53.140Z,1298.00
2023-04-19T00:30:53.169Z,1291.00
2023-04-19T00:31:53.203Z,1276.00
2023-04-19T00:32:53.286Z,1271.00
2023-04-19T00:33:53.283Z,1272.00
2023-04-19T00:34:53.301Z,1292.00
2023-04-19T00:35:53.376Z,1285.00
2023-04-19T00:36:53.411Z,1282.00
2023-04-19T00:37:53.422Z,1293.00
2023-04-19T00:38:53.504Z,1282.00
2023-04-19T00:39:53.547Z,1276.00
2023-04-19T00:40:53.592Z,1304.00
2023-04-19T00:41:53.633Z,1261.00
2023-04-19T00:42:53.648Z,1258.00
2023-04-19T00:43:53.647Z,1283.00
2023-04-19T00:44:53.650Z,1287.00
2023-04-19T00:45:53.676Z,1297.00
2023-04-19T00:46:53.655Z,1272.00
2023-04-19T00:47:53.734Z,1273.00
2023-04-19T00:48:53.655Z,1259.00
2023-04-19T00:49:53.661Z,1280.00
2023-04-19T00:50:53.674Z,1290.00
2023-04-19T00:51:53.662Z,1303.00
2023-04-19T00:52:53.678Z,1265.00
2023-04-19T00:53:53.681Z,1278.00
2023-04-19T00:54:53.676Z,1272.00
2023-04-19T00:55:53.686Z,1247.00
2023-04-19T00:56:53.681Z,1249.00
2023-04-19T00:57:53.688Z,1274.00
2023-04-19T00:58:53.682Z,1298.00
2023-04-19T00:59:53.752Z,1288.00
2023-04-19T01:00:53.808Z,1274.00
2023-04-19T01:01:53.900Z,1265.00
2023-04-19T01:02:54.044Z,1257.00
2023-04-19T01:03:54.087Z,1294.00
2023-04-19T01:04:53.992Z,1264.00
2023-04-19T01:05:54.006Z,1291.00
2023-04-19T01:06:54.011Z,1270.00
2023-04-19T01:07:54.104Z,1267.00
2023-04-19T01:08:54.153Z,1264.00
2023-04-19T01:09:54.177Z,1278.00
2023-04-19T01:10:54.233Z,1279.00
2023-04-19T01:11:54.294Z,1287.00
2023-04-19T01:12:54.365Z,1281.00
2023-04-19T01:13:54.433Z,1301.00
2023-04-19T01:14:54.466Z,1314.00
2023-04-19T01:15:54.575Z,1317.00
2023-04-19T01:16:54.584Z,1309.00
2023-04-19T01:17:54.689Z,1281.00
2023-04-19T01:18:54.709Z,1293.00
2023-04-19T01:19:54.716Z,1295.00
2023-04-19T01:20:54.734Z,1317.00
2023-04-19T01:21:54.758Z,1297.00
2023-04-19T01:22:54.748Z,1341.00
2023-04-19T01:23:54.772Z,1308.00
2023-04-19T01:24:54.775Z,1307.00
2023-04-19T01:25:54.764Z,1317.00
2023-04-19T01:26:54.784Z,1315.00
2023-04-19T01:27:54.798Z,1315.00
2023-04-19T01:28:54.822Z,1304.00
2023-04-19T01:29:54.802Z,1314.00
2023-04-19T01:30:54.909Z,1304.00
2023-04-19T01:31:54.917Z,1293.00
2023-04-19T01:32:55.042Z,1295.00
2023-04-19T01:33:55.013Z,1276.00
2023-04-19T01:34:55.065Z,1311.00
2023-04-19T01:35:55.112Z,1302.00
2023-04-19T01:36:55.188Z,1328.00
2023-04-19T01:37:55.235Z,1321.00
2023-04-19T01:38:55.295Z,1305.00
2023-04-19T01:39:55.343Z,1321.00
2023-04-19T01:40:55.421Z,1318.00
2023-04-19T01:41:55.467Z,1330.00
2023-04-19T01:42:55.528Z,1335.00
2023-04-19T01:43:55.598Z,1311.00
2023-04-19T01:44:55.654Z,1307.00
2023-04-19T01:45:55.717Z,1315.00
2023-04-19T01:46:55.809Z,1304.00
2023-04-19T01:47:55.795Z,1291.00
2023-04-19T01:48:55.755Z,1300.00
2023-04-19T01:49:55.781Z,1286.00
2023-04-19T01:50:55.771Z,1298.00
2023-04-19T01:51:55.770Z,1300.00
2023-04-19T01:52:55.787Z,1326.00
2023-04-19T01:53:55.805Z,1313.00
2023-04-19T01:54:55.805Z,1298.00
2023-04-19T01:55:55.807Z,1334.00
2023-04-19T01:56:55.808Z,1330.00
2023-04-19T01:57:55.816Z,1327.00
2023-04-19T01:58:55.828Z,1329.00
2023-04-19T01:59:55.828Z,1313.00
2023-04-19T02:00:55.858Z,1299.00
2023-04-19T02:01:55.903Z,1297.00
2023-04-19T02:02:55.984Z,1308.00
2023-04-19T02:03:55.942Z,1300.00
2023-04-19T02:04:55.861Z,1310.00
2023-04-19T02:05:55.860Z,1309.00
2023-04-19T02:06:55.861Z,1317.00
2023-04-19T02:07:55.868Z,1306.00
2023-04-19T02:08:55.914Z,1299.00
2023-04-19T02:09:55.953Z,1298.00
2023-04-19T02:10:56.010Z,1296.00
2023-04-19T02:11:56.085Z,1303.00
2023-04-19T02:12:56.126Z,1314.00
2023-04-19T02:13:56.177Z,1302.00
2023-04-19T02:14:56.251Z,1272.00
2023-04-19T02:15:56.318Z,1296.00
2023-04-19T02:16:56.443Z,1282.00
2023-04-19T02:17:56.440Z,1276.00
2023-04-19T02:18:56.386Z,1277.00
2023-04-19T02:19:56.390Z,1260.00
2023-04-19T02:20:56.404Z,1270.00
2023-04-19T02:21:56.387Z,1283.00
2023-04-19T02:22:56.380Z,1286.00
2023-04-19T02:23:56.385Z,1282.00
2023-04-19T02:24:56.396Z,1257.00
2023-04-19T02:25:56.388Z,1275.00
2023-04-19T02:26:56.425Z,1287.00
2023-04-19T02:27:56.410Z,1289.00
2023-04-19T02:28:56.475Z,1304.00
2023-04-19T02:29:56.551Z,1290.00
2023-04-19T02:30:56.581Z,1271.00
2023-04-19T02:31:56.666Z,1275.00
2023-04-19T02:32:56.733Z,1298.00
2023-04-19T02:33:56.730Z,1282.00
2023-04-19T02:34:56.796Z,1271.00
2023-04-19T02:35:56.858Z,1291.00
2023-04-19T02:36:56.936Z,1290.00
2023-04-19T02:37:56.977Z,1286.00
2023-04-19T02:38:56.967Z,1285.00
2023-04-19T02:39:57.012Z,1277.00
2023-04-19T02:40:56.997Z,1282.00
2023-04-19T02:41:57.000Z,1284.00
2023-04-19T02:42:56.996Z,1274.00
2023-04-19T02:43:57.004Z,1281.00
2023-04-19T02:44:57.359Z,1276.00
2023-04-19T02:45:57.091Z,1285.00
2023-04-19T02:46:57.039Z,1280.00
2023-04-19T02:47:57.130Z,1279.00
2023-04-19T02:48:57.159Z,1288.00
2023-04-19T02:49:57.231Z,1271.00
2023-04-19T02:50:57.262Z,1282.00
2023-04-19T02:51:57.324Z,1275.00
2023-04-19T02:52:57.435Z,1297.00
2023-04-19T02:53:57.436Z,1307.00
2023-04-19T02:54:57.483Z,1294.00
2023-04-19T02:55:57.545Z,1272.00
2023-04-19T02:56:57.670Z,1277.00
2023-04-19T02:57:57.679Z,1275.00
2023-04-19T02:58:57.754Z,1267.00
2023-04-19T02:59:57.772Z,1281.00
2023-04-19T03:00:57.867Z,1257.00
2023-04-19T03:01:57.954Z,1271.00
2023-04-19T03:02:58.093Z,1266.00
2023-04-19T03:03:58.098Z,1286.00
2023-04-19T03:04:58.102Z,1271.00
2023-04-19T03:05:58.117Z,1253.00
2023-04-19T03:06:58.184Z,1270.00
2023-04-19T03:07:58.232Z,1277.00
2023-04-19T03:08:58.250Z,1280.00
2023-04-19T03:09:58.252Z,1269.00
2023-04-19T03:10:58.235Z,1303.00
2023-04-19T03:11:58.294Z,1290.00
2023-04-19T03:12:58.238Z,1277.00
2023-04-19T03:13:58.252Z,1281.00
2023-04-19T03:14:58.275Z,1272.00
2023-04-19T03:15:58.371Z,1283.00
2023-04-19T03:16:58.378Z,1287.00
2023-04-19T03:17:58.462Z,1288.00
2023-04-19T03:18:58.433Z,1265.00
2023-04-19T03:19:58.429Z,1274.00
2023-04-19T03:20:58.428Z,1289.00
2023-04-19T03:21:58.464Z,1266.00
2023-04-19T03:22:58.424Z,1275.00
2023-04-19T03:23:58.421Z,1249.00
2023-04-19T03:24:58.446Z,1279.00
2023-04-19T03:25:58.455Z,1264.00
2023-04-19T03:26:58.452Z,1257.00
2023-04-19T03:27:58.460Z,1257.00
2023-04-19T03:28:58.461Z,1242.00
2023-04-19T03:29:58.473Z,1273.00
2023-04-19T03:30:58.485Z,1268.00
2023-04-19T03:31:58.488Z,1260.00
2023-04-19T03:32:58.531Z,1266.00
2023-04-19T03:33:58.512Z,1266.00
2023-04-19T03:34:58.544Z,1273.00
2023-04-19T03:35:58.611Z,1281.00
2023-04-19T03:36:58.691Z,1278.00
2023-04-19T03:37:58.706Z,1266.00
2023-04-19T03:38:58.701Z,1272.00
2023-04-19T03:39:58.749Z,1254.00
2023-04-19T03:40:58.715Z,1262.00
2023-04-19T03:41:58.716Z,1277.00
2023-04-19T03:42:58.739Z,1263.00
2023-04-19T03:43:58.732Z,1261.00
2023-04-19T03:44:58.725Z,1261.00
2023-04-19T03:45:58.766Z,1262.00
2023-04-19T03:46:58.743Z,1253.00
2023-04-19T03:48:00.155Z,1270.00
2023-04-19T03:48:58.768Z,1251.00
2023-04-19T03:49:58.749Z,1261.00
2023-04-19T03:50:58.749Z,1261.00
2023-04-19T03:51:58.742Z,1274.00
2023-04-19T03:52:58.711Z,1256.00
2023-04-19T03:53:58.727Z,1249.00
2023-04-19T03:54:58.707Z,1254.00
2023-04-19T03:55:58.698Z,1276.00
2023-04-19T03:56:58.682Z,1288.00
2023-04-19T03:57:58.699Z,1271.00
2023-04-19T03:58:58.687Z,1253.00
2023-04-19T03:59:58.685Z,1277.00
2023-04-19T04:00:58.659Z,1274.00
2023-04-19T04:01:58.747Z,1274.00
2023-04-19T04:02:58.863Z,1282.00
2023-04-19T04:03:58.879Z,1260.00
2023-04-19T04:04:58.706Z,1272.00
2023-04-19T04:05:58.657Z,1268.00
2023-04-19T04:06:58.657Z,1273.00
2023-04-19T04:07:58.632Z,1262.00
2023-04-19T04:08:58.618Z,1265.00
2023-04-19T04:09:58.647Z,1299.00
2023-04-19T04:10:58.589Z,1276.00
2023-04-19T04:11:58.599Z,1290.00
2023-04-19T04:12:58.596Z,1283.00
2023-04-19T04:13:58.573Z,1288.00
2023-04-19T04:14:58.574Z,1282.00
2023-04-19T04:15:58.619Z,1297.00
2023-04-19T04:16:58.546Z,1285.00
2023-04-19T04:17:58.570Z,1280.00
2023-04-19T04:18:58.553Z,1285.00
2023-04-19T04:19:58.543Z,1285.00
2023-04-19T04:20:58.528Z,1294.00
2023-04-19T04:21:58.529Z,1284.00
2023-04-19T04:22:58.502Z,1288.00
2023-04-19T04:23:58.509Z,1279.00
2023-04-19T04:24:58.493Z,1309.00
2023-04-19T04:25:58.493Z,1292.00
2023-04-19T04:26:58.492Z,1290.00
2023-04-19T04:27:58.487Z,1314.00
2023-04-19T04:28:58.470Z,1306.00
2023-04-19T04:29:58.512Z,1306.00
2023-04-19T04:30:58.459Z,1309.00
2023-04-19T04:31:58.521Z,1295.00
2023-04-19T04:32:58.530Z,1314.00
2023-04-19T04:33:58.566Z,1301.00
2023-04-19T04:34:58.604Z,1314.00
2023-04-19T04:35:58.667Z,1307.00
2023-04-19T04:36:58.670Z,1313.00
2023-04-19T04:37:58.703Z,1307.00
2023-04-19T04:38:58.744Z,1308.00
2023-04-19T04:39:58.826Z,1310.00
2023-04-19T04:40:58.893Z,1309.00
2023-04-19T04:41:58.926Z,1321.00
2023-04-19T04:42:58.984Z,1335.00
2023-04-19T04:44:12.005Z,1333.00
2023-04-19T04:45:00.022Z,1334.00
2023-04-19T04:45:59.048Z,1335.00
2023-04-19T04:46:59.011Z,1344.00
2023-04-19T04:47:59.034Z,1342.00
2023-04-19T04:48:59.020Z,1342.00
2023-04-19T04:49:59.033Z,1368.00
2023-04-19T04:50:58.988Z,1354.00
2023-04-19T04:51:58.996Z,1364.00
2023-04-19T04:52:58.998Z,1345.00
2023-04-19T04:53:59.000Z,1358.00
2023-04-19T04:54:59.017Z,1360.00
2023-04-19T04:55:59.003Z,1367.00
2023-04-19T04:56:59.052Z,1362.00
2023-04-19T04:57:59.018Z,1365.00
2023-04-19T04:58:59.018Z,1380.00
2023-04-19T04:59:59.020Z,1353.00
2023-04-19T05:00:59.077Z,1371.00
2023-04-19T05:01:59.125Z,1371.00
2023-04-19T05:02:59.140Z,1363.00
2023-04-19T05:03:59.134Z,1365.00
2023-04-19T05:04:59.142Z,1367.00
2023-04-19T05:05:59.202Z,1358.00
2023-04-19T05:06:59.273Z,1355.00
2023-04-19T05:07:59.356Z,1361.00
2023-04-19T05:08:59.406Z,1342.00
2023-04-19T05:09:59.446Z,1367.00
2023-04-19T05:10:59.473Z,1353.00
2023-04-19T05:11:59.456Z,1348.00
2023-04-19T05:12:59.472Z,1336.00
2023-04-19T05:13:59.492Z,1345.00
2023-04-19T05:14:59.484Z,1342.00
2023-04-19T05:15:59.563Z,1327.00
2023-04-19T05:16:59.597Z,1335.00
2023-04-19T05:17:59.730Z,1334.00
2023-04-19T05:18:59.716Z,1337.00
2023-04-19T05:19:59.743Z,1335.00
2023-04-19T05:20:59.753Z,1347.00
2023-04-19T05:21:59.770Z,1327.00
2023-04-19T05:22:59.758Z,1335.00
2023-04-19T05:23:59.760Z,1334.00
2023-04-19T05:24:59.771Z,1327.00
2023-04-19T05:25:59.774Z,1371.00
2023-04-19T05:26:59.834Z,1325.00
2023-04-19T05:27:59.863Z,1403.00
2023-04-19T05:28:59.944Z,1408.00
2023-04-19T05:30:00.434Z,1476.00
2023-04-19T05:31:00.038Z,1484.00
2023-04-19T05:32:00.073Z,1468.00
2023-04-19T05:33:00.265Z,1501.00
2023-04-19T05:34:00.155Z,1547.00
2023-04-19T05:35:00.169Z,1587.00
2023-04-19T05:36:00.163Z,1683.00
2023-04-19T05:37:00.155Z,1733.00
2023-04-19T05:38:00.168Z,1776.00
2023-04-19T05:39:00.244Z,1959.00
2023-04-19T05:40:00.299Z,2135.00
2023-04-19T05:41:00.356Z,2223.00
2023-04-19T05:42:00.435Z,2285.00
2023-04-19T05:43:00.502Z,2321.00
2023-04-19T05:44:00.501Z,2339.00
2023-04-19T05:45:00.529Z,2377.00
2023-04-19T05:46:00.540Z,2401.00
2023-04-19T05:47:00.593Z,2412.00
2023-04-19T05:48:00.668Z,2420.00
2023-04-19T05:49:00.645Z,2467.00
2023-04-19T05:50:00.740Z,2490.00
2023-04-19T05:51:00.725Z,2496.00
2023-04-19T05:52:00.804Z,2501.00
2023-04-19T05:53:00.809Z,2518.00
2023-04-19T05:54:00.872Z,2949.00
2023-04-19T05:55:00.960Z,3121.00
2023-04-19T05:56:00.882Z,2929.00
2023-04-19T05:57:00.924Z,2799.00
2023-04-19T05:58:00.950Z,2724.00
2023-04-19T05:59:00.988Z,2677.00
2023-04-19T06:01:01.114Z,2625.00
2023-04-19T06:02:01.391Z,2622.00
2023-04-19T06:03:01.244Z,2596.00
2023-04-19T06:04:01.376Z,2583.00
2023-04-19T06:05:05.178Z,2559.00
2023-04-19T06:06:02.238Z,2560.00
2023-04-19T06:07:01.140Z,2562.00
2023-04-19T06:08:02.493Z,2566.00
2023-04-19T06:09:01.170Z,2574.00
2023-04-19T06:10:01.140Z,2588.00
2023-04-19T06:11:08.113Z,2589.00
2023-04-19T06:12:02.104Z,2590.00
2023-04-19T06:13:01.105Z,2591.00
2023-04-19T06:14:01.103Z,2594.00
2023-04-19T06:15:01.107Z,2571.00
2023-04-19T06:16:01.106Z,2576.00
2023-04-19T06:17:01.116Z,2580.00
2023-04-19T06:18:01.081Z,2590.00
2023-04-19T06:19:01.080Z,2570.00
2023-04-19T06:20:01.116Z,2590.00
2023-04-19T06:21:01.063Z,2573.00
2023-04-19T06:22:01.051Z,2591.00
2023-04-19T06:23:01.052Z,2623.00
2023-04-19T06:24:01.505Z,2612.00
2023-04-19T06:25:01.447Z,2607.00
2023-04-19T06:26:01.034Z,2597.00
2023-04-19T06:27:01.056Z,2748.00
2023-04-19T06:28:01.119Z,3095.00
2023-04-19T06:29:01.191Z,2829.00
2023-04-19T06:30:01.443Z,2707.00
2023-04-19T06:31:01.260Z,2653.00
2023-04-19T06:32:01.430Z,2612.00
2023-04-19T06:33:01.407Z,2547.00
2023-04-19T06:34:01.439Z,2520.00
2023-04-19T06:35:01.940Z,2531.00
2023-04-19T06:36:01.431Z,2522.00
2023-04-19T06:37:01.472Z,2523.00
2023-04-19T06:38:01.519Z,2534.00
2023-04-19T06:39:01.591Z,2540.00
2023-04-19T06:40:01.708Z,2543.00
2023-04-19T06:41:01.627Z,2559.00
2023-04-19T06:42:01.615Z,2558.00
2023-04-19T06:43:01.650Z,2570.00
2023-04-19T06:44:01.955Z,2569.00
2023-04-19T06:45:01.990Z,2582.00
2023-04-19T06:46:01.829Z,2579.00
2023-04-19T06:47:01.702Z,2572.00
2023-04-19T06:48:01.769Z,2602.00
2023-04-19T06:49:01.796Z,2607.00
2023-04-19T06:50:01.955Z,2616.00
2023-04-19T06:51:01.749Z,2605.00
2023-04-19T06:52:01.814Z,2610.00
2023-04-19T06:53:04.097Z,2630.00
2023-04-19T06:54:01.961Z,2672.00
2023-04-19T06:55:01.825Z,2684.00
2023-04-19T06:56:01.851Z,2708.00
2023-04-19T06:57:02.445Z,2721.00
2023-04-19T06:58:01.862Z,2729.00
2023-04-19T06:59:01.952Z,2711.00
2023-04-19T07:00:01.779Z,2713.00
2023-04-19T07:01:01.839Z,2725.00
2023-04-19T07:02:01.783Z,2729.00
2023-04-19T07:03:01.874Z,2713.00
2023-04-19T07:04:01.963Z,2699.00
2023-04-19T07:05:02.013Z,2694.00
2023-04-19T07:06:01.754Z,2689.00
2023-04-19T07:07:01.753Z,2694.00
2023-04-19T07:08:01.733Z,2713.00
2023-04-19T07:09:01.738Z,2710.00
2023-04-19T07:10:01.782Z,2708.00
2023-04-19T07:11:01.759Z,2703.00
2023-04-19T07:12:01.731Z,2706.00
2023-04-19T07:13:01.713Z,2709.00
2023-04-19T07:14:01.681Z,2706.00
2023-04-19T07:15:01.968Z,2709.00
2023-04-19T07:16:01.703Z,2693.00
2023-04-19T07:17:01.702Z,2697.00
2023-04-19T07:18:01.738Z,2690.00
2023-04-19T07:19:01.678Z,2677.00
2023-04-19T07:20:02.450Z,2683.00
2023-04-19T07:21:01.645Z,2684.00
2023-04-19T07:22:01.667Z,2695.00
2023-04-19T07:23:01.759Z,2697.00
2023-04-19T07:24:01.630Z,2705.00
2023-04-19T07:25:01.620Z,2720.00
2023-04-19T07:26:01.626Z,2715.00
2023-04-19T07:27:01.603Z,2693.00
2023-04-19T07:28:01.618Z,2652.00
2023-04-19T07:29:01.973Z,2651.00
2023-04-19T07:30:01.979Z,2488.00
2023-04-19T07:31:01.562Z,2464.00
2023-04-19T07:32:01.633Z,2498.00
2023-04-19T07:33:01.609Z,2527.00
2023-04-19T07:34:01.547Z,2425.00
2023-04-19T07:35:02.487Z,2323.00
2023-04-19T07:36:01.584Z,2330.00
2023-04-19T07:37:01.525Z,2338.00
2023-04-19T07:38:01.528Z,2456.00
2023-04-19T07:39:01.539Z,2798.00
2023-04-19T07:40:02.129Z,3280.00
2023-04-19T07:41:01.495Z,3164.00
2023-04-19T07:42:01.489Z,2627.00
2023-04-19T07:43:01.484Z,2338.00
2023-04-19T07:44:01.470Z,2274.00
2023-04-19T07:45:01.480Z,2410.00
2023-04-19T07:46:01.512Z,2998.00
2023-04-19T07:47:01.541Z,3104.00
2023-04-19T07:48:01.594Z,3201.00
2023-04-19T07:49:02.024Z,2794.00
2023-04-19T07:50:01.673Z,2861.00
2023-04-19T07:51:01.711Z,3374.00
2023-04-19T07:52:01.770Z,3180.00
2023-04-19T07:53:01.811Z,2853.00
2023-04-19T07:54:01.943Z,2653.00
2023-04-19T07:55:01.999Z,2543.00
2023-04-19T07:56:01.940Z,2499.00
2023-04-19T07:57:01.797Z,2435.00
2023-04-19T07:58:01.824Z,2380.00
2023-04-19T07:59:08.478Z,2535.00
2023-04-19T08:00:02.830Z,2540.00
2023-04-19T08:01:01.813Z,2509.00
2023-04-19T08:02:01.919Z,2380.00
2023-04-19T08:03:01.903Z,2310.00
2023-04-19T08:04:02.074Z,2257.00
2023-04-19T08:05:02.044Z,2221.00
2023-04-19T08:06:01.960Z,2180.00
2023-04-19T08:07:01.732Z,2152.00
2023-04-19T08:08:01.755Z,2129.00
2023-04-19T08:09:01.714Z,2087.00
2023-04-19T08:10:01.894Z,2103.00
2023-04-19T08:11:02.212Z,2076.00
2023-04-19T08:12:01.742Z,2082.00
2023-04-19T08:13:05.825Z,2103.00
2023-04-19T08:14:11.978Z,2103.00
2023-04-19T08:15:11.253Z,2104.00
2023-04-19T08:16:18.025Z,2105.00
2023-04-19T08:18:01.808Z,2106.00
2023-04-19T08:19:02.431Z,2114.00
2023-04-19T08:20:01.687Z,2126.00
2023-04-19T08:21:01.643Z,2137.00
2023-04-19T08:22:01.636Z,2107.00
2023-04-19T08:23:07.588Z,2091.00
2023-04-19T08:24:02.651Z,2094.00
2023-04-19T08:25:01.970Z,2106.00
2023-04-19T08:26:01.980Z,2134.00
2023-04-19T08:27:01.606Z,2161.00
2023-04-19T08:28:01.607Z,2199.00
2023-04-19T08:29:01.598Z,2217.00
2023-04-19T08:30:01.593Z,2209.00
2023-04-19T08:31:01.646Z,2180.00
2023-04-19T08:32:01.601Z,2197.00
2023-04-19T08:33:01.654Z,2183.00
2023-04-19T08:34:01.579Z,2129.00
2023-04-19T08:35:02.001Z,2120.00
2023-04-19T08:36:01.608Z,2116.00
2023-04-19T08:37:04.582Z,2089.00
2023-04-19T08:38:02.718Z,2069.00
2023-04-19T08:39:06.763Z,2046.00
2023-04-19T08:40:02.975Z,2047.00
2023-04-19T08:41:01.603Z,2064.00
2023-04-19T08:43:01.544Z,2075.00
2023-04-19T08:44:01.543Z,2093.00
2023-04-19T08:45:25.974Z,2109.00
2023-04-19T08:46:02.599Z,2111.00
2023-04-19T08:47:01.518Z,2113.00
2023-04-19T08:48:02.341Z,2118.00
2023-04-19T08:49:01.516Z,2126.00
2023-04-19T08:50:14.017Z,2143.00
2023-04-19T08:51:05.522Z,2112.00
2023-04-19T08:52:01.474Z,2112.00
2023-04-19T08:53:12.201Z,2118.00
2023-04-19T08:54:02.482Z,2112.00
2023-04-19T08:55:01.486Z,2118.00
2023-04-19T08:57:01.496Z,2093.00
2023-04-19T08:58:01.706Z,2105.00
2023-04-19T08:59:15.590Z,2111.00
2023-04-19T09:00:02.450Z,2111.00
2023-04-19T09:01:01.435Z,2112.00
2023-04-19T09:02:01.490Z,2113.00
2023-04-19T09:03:01.574Z,2101.00
2023-04-19T09:04:16.203Z,2062.00
2023-04-19T09:05:02.525Z,2083.00
2023-04-19T09:06:01.468Z,2036.00
2023-04-19T09:07:01.384Z,2006.00
2023-04-19T09:08:01.401Z,2004.00
2023-04-19T09:09:01.359Z,1981.00
2023-04-19T09:10:03.230Z,1941.00
2023-04-19T09:11:01.473Z,1874.00
2023-04-19T09:12:01.529Z,1877.00
2023-04-19T09:13:01.541Z,1872.00
2023-04-19T09:14:01.536Z,1865.00
2023-04-19T09:15:02.576Z,1872.00
2023-04-19T09:16:01.670Z,1855.00
2023-04-19T09:17:01.546Z,1853.00
2023-04-19T09:18:01.592Z,1841.00
2023-04-19T09:19:15.256Z,1833.00
2023-04-19T09:20:02.999Z,1834.00
2023-04-19T09:21:01.586Z,1836.00
2023-04-19T09:22:01.546Z,1833.00
2023-04-19T09:23:01.603Z,1838.00
2023-04-19T09:24:03.534Z,1821.00
2023-04-19T09:25:34.313Z,1826.00
2023-04-19T09:27:01.526Z,1800.00
2023-04-19T09:28:02.509Z,1770.00
2023-04-19T09:29:01.667Z,1868.00
2023-04-19T09:30:01.615Z,2218.00
2023-04-19T09:31:15.163Z,2645.00
2023-04-19T09:32:02.550Z,1861.00
2023-04-19T09:33:01.603Z,1985.00
2023-04-19T09:34:01.449Z,2175.00
2023-04-19T09:35:01.545Z,2434.00
2023-04-19T09:36:01.506Z,2760.00
2023-04-19T09:37:11.900Z,2808.00
2023-04-19T09:38:06.061Z,2808.00
2023-04-19T09:39:01.587Z,2809.00
2023-04-19T09:40:02.088Z,2755.00
2023-04-19T09:41:01.616Z,2702.00
2023-04-19T09:42:01.664Z,2599.00
2023-04-19T09:43:17.464Z,2576.00
2023-04-19T09:45:28.418Z,2734.00
2023-04-19T09:46:02.724Z,2761.00
2023-04-19T09:47:01.754Z,2696.00
2023-04-19T09:48:01.712Z,2594.00
2023-04-19T09:49:04.040Z,2554.00
2023-04-19T09:50:06.379Z,2559.00
2023-04-19T09:51:07.407Z,2564.00
2023-04-19T09:52:02.587Z,2569.00
2023-04-19T09:53:01.596Z,2470.00
2023-04-19T09:54:01.570Z,2428.00
2023-04-19T09:55:03.114Z,2406.00
2023-04-19T09:56:03.474Z,2414.00
2023-04-19T09:57:01.810Z,2365.00
2023-04-19T09:58:01.558Z,2215.00
2023-04-19T10:00:01.540Z,2132.00
2023-04-19T10:01:13.496Z,2111.00
2023-04-19T10:02:02.610Z,2163.00
2023-04-19T10:03:01.633Z,2127.00
2023-04-19T10:04:14.378Z,2115.00
2023-04-19T10:05:16.460Z,2121.00
2023-04-19T10:06:10.772Z,2077.00
2023-04-19T10:08:01.574Z,2182.00
2023-04-19T10:09:01.511Z,2144.00
2023-04-19T10:10:11.793Z,2102.00
2023-04-19T10:11:02.507Z,2141.00
2023-04-19T10:12:06.624Z,2102.00
2023-04-19T10:13:15.922Z,2067.00
2023-04-19T10:14:02.459Z,2124.00
2023-04-19T10:15:01.436Z,2140.00
2023-04-19T10:16:11.597Z,2129.00
2023-04-19T10:17:02.536Z,2178.00
2023-04-19T10:18:01.467Z,2163.00
2023-04-19T10:19:01.432Z,2165.00
2023-04-19T10:20:01.416Z,2148.00
2023-04-19T10:21:01.629Z,1934.00
2023-04-19T10:22:01.534Z,1924.00
2023-04-19T10:23:01.403Z,1785.00
2023-04-19T10:24:01.408Z,1864.00
2023-04-19T10:25:01.391Z,1825.00
2023-04-19T10:26:01.542Z,1775.00
2023-04-19T10:27:01.381Z,1770.00
2023-04-19T10:28:01.376Z,1820.00
2023-04-19T10:29:01.356Z,1642.00
2023-04-19T10:30:01.401Z,1535.00
2023-04-19T10:31:01.483Z,1530.00
2023-04-19T10:32:01.462Z,1459.00
2023-04-19T10:33:01.491Z,1375.00
2023-04-19T10:34:01.578Z,1310.00
2023-04-19T10:35:01.539Z,1150.00
2023-04-19T10:36:01.562Z,1107.00
2023-04-19T10:37:02.023Z,1011.00
2023-04-19T10:38:01.708Z,1058.00
2023-04-19T10:39:01.725Z,953.00
2023-04-19T10:40:01.772Z,863.00
2023-04-19T10:41:01.892Z,804.00
2023-04-19T10:42:01.915Z,814.00
2023-04-19T10:43:01.941Z,785.00
2023-04-19T10:44:02.005Z,846.00
2023-04-19T10:45:02.093Z,834.00
2023-04-19T10:46:02.615Z,856.00
2023-04-19T10:47:02.089Z,850.00
2023-04-19T10:48:02.160Z,846.00
2023-04-19T10:49:02.216Z,862.00
2023-04-19T10:50:02.164Z,850.00
2023-04-19T10:51:02.193Z,781.00
2023-04-19T10:52:02.209Z,859.00
2023-04-19T10:53:02.243Z,891.00
2023-04-19T10:54:02.309Z,909.00
2023-04-19T10:55:02.298Z,828.00
2023-04-19T10:56:02.343Z,781.00
2023-04-19T10:57:02.460Z,843.00
2023-04-19T10:58:02.425Z,908.00
2023-04-19T10:59:02.585Z,774.00
2023-04-19T11:00:02.489Z,803.00
2023-04-19T11:01:02.509Z,787.00
2023-04-19T11:02:02.682Z,815.00
2023-04-19T11:03:02.664Z,769.00
2023-04-19T11:04:02.769Z,738.00
2023-04-19T11:05:02.641Z,661.00
2023-04-19T11:06:02.593Z,584.00
2023-04-19T11:07:02.628Z,609.00
2023-04-19T11:08:02.636Z,630.00
2023-04-19T11:09:02.636Z,561.00
2023-04-19T11:10:02.632Z,564.00
2023-04-19T11:11:02.662Z,523.00
2023-04-19T11:12:02.677Z,507.00
2023-04-19T11:13:02.706Z,520.00
2023-04-19T11:14:02.708Z,566.00
2023-04-19T11:15:02.749Z,572.00
2023-04-19T11:16:02.848Z,603.00
2023-04-19T11:17:02.997Z,582.00
2023-04-19T11:18:12.676Z,584.00
2023-04-19T11:19:03.897Z,585.00
2023-04-19T11:20:02.928Z,590.00
2023-04-19T11:21:03.066Z,594.00
2023-04-19T11:22:02.890Z,601.00
2023-04-19T11:23:02.868Z,693.00
2023-04-19T11:24:02.879Z,873.00
2023-04-19T11:25:02.849Z,952.00
2023-04-19T11:26:02.856Z,1020.00
2023-04-19T11:27:02.850Z,1036.00
2023-04-19T11:28:02.852Z,952.00
2023-04-19T11:29:02.842Z,926.00
2023-04-19T11:30:02.838Z,966.00
2023-04-19T11:31:02.869Z,1000.00
2023-04-19T11:32:02.817Z,1059.00
2023-04-19T11:33:02.845Z,1113.00
2023-04-19T11:34:02.805Z,1159.00
2023-04-19T11:35:02.780Z,1160.00
2023-04-19T11:36:02.770Z,1194.00
2023-04-19T11:37:02.766Z,1225.00
2023-04-19T11:38:02.767Z,1227.00
2023-04-19T11:39:02.815Z,1252.00
2023-04-19T11:40:04.681Z,1271.00
2023-04-19T11:41:02.866Z,1278.00
2023-04-19T11:42:02.958Z,1285.00
2023-04-19T11:43:03.014Z,1296.00
2023-04-19T11:44:03.103Z,1286.00
2023-04-19T11:45:03.120Z,1290.00
2023-04-19T11:46:03.204Z,1317.00
2023-04-19T11:47:03.358Z,1331.00
2023-04-19T11:48:03.367Z,1322.00
2023-04-19T11:49:03.358Z,1303.00
2023-04-19T11:50:03.427Z,1320.00
2023-04-19T11:51:03.480Z,1340.00
2023-04-19T11:52:05.608Z,1332.00
2023-04-19T11:53:03.554Z,1327.00
2023-04-19T11:54:03.541Z,1341.00
2023-04-19T11:55:03.548Z,1331.00
2023-04-19T11:56:03.512Z,1338.00
2023-04-19T11:57:03.497Z,1310.00
2023-04-19T11:58:03.512Z,1342.00
2023-04-19T11:59:03.504Z,1338.00
2023-04-19T12:00:03.479Z,1102.00
2023-04-19T12:01:03.476Z,1255.00
2023-04-19T12:02:03.616Z,1300.00
2023-04-19T12:03:03.616Z,1270.00
2023-04-19T12:04:03.512Z,1176.00
2023-04-19T12:05:03.600Z,1102.00
2023-04-19T12:06:03.611Z,1142.00
2023-04-19T12:07:03.571Z,1210.00
2023-04-19T12:08:03.449Z,1258.00
2023-04-19T12:09:03.423Z,1288.00
2023-04-19T12:10:03.411Z,1322.00
2023-04-19T12:11:03.607Z,1337.00
2023-04-19T12:12:03.396Z,1374.00
2023-04-19T12:13:03.380Z,1395.00
2023-04-19T12:14:03.369Z,1397.00
2023-04-19T12:15:03.382Z,1428.00
2023-04-19T12:16:03.422Z,1456.00